createdAt,value
2019-01-12T00:01:06.083Z,101855.45
2019-01-12T00:03:36.466Z,101850.72
2019-01-12T00:06:09.412Z,101858.09
2019-01-12T00:08:39.923Z,101851.52
2019-01-12T00:11:10.568Z,101856.27
2019-01-12T00:13:41.850Z,101850.70
2019-01-12T00:16:12.200Z,101849.34
2019-01-12T00:18:42.709Z,101852.05
2019-01-12T00:21:14.616Z,101852.46
2019-01-12T00:23:44.966Z,101850.25
2019-01-12T00:26:18.647Z,101844.07
2019-01-12T00:28:49.034Z,101851.06
2019-01-12T00:31:19.514Z,101844.14
2019-01-12T00:33:49.895Z,101847.22
2019-01-12T00:36:20.461Z,101845.91
2019-01-12T00:38:52.895Z,101847.59
2019-01-12T00:41:24.435Z,101840.18
2019-01-12T00:43:54.881Z,101842.91
2019-01-12T00:46:25.364Z,101842.49
2019-01-12T00:48:55.881Z,101832.50
2019-01-12T00:51:26.280Z,101841.73
2019-01-12T00:53:56.585Z,101828.70
2019-01-12T00:56:27.020Z,101838.30
2019-01-12T00:58:57.500Z,101835.74
2019-01-12T01:01:35.188Z,101837.92
2019-01-12T01:04:05.778Z,101836.20
2019-01-12T01:06:39.286Z,101836.72
2019-01-12T01:09:12.079Z,101839.31
2019-01-12T01:11:45.035Z,101842.38
2019-01-12T01:14:15.474Z,101844.15
2019-01-12T01:16:45.854Z,101833.28
2019-01-12T01:19:19.928Z,101839.36
2019-01-12T01:21:50.746Z,101837.23
2019-01-12T01:24:21.175Z,101834.09
2019-01-12T01:26:51.552Z,101838.97
2019-01-12T01:29:24.056Z,101837.70
2019-01-12T01:31:57.308Z,101839.87
2019-01-12T01:34:28.004Z,101842.10
2019-01-12T01:36:58.355Z,101846.28
2019-01-12T01:39:29.063Z,101846.81
2019-01-12T01:42:04.459Z,101841.02
2019-01-12T01:44:34.871Z,101841.91
2019-01-12T01:47:05.461Z,101838.86
2019-01-12T01:49:35.843Z,101836.30
2019-01-12T01:52:06.753Z,101841.02
2019-01-12T01:54:45.102Z,101839.73
2019-01-12T01:57:16.996Z,101846.30
2019-01-12T01:59:47.301Z,101841.00
2019-01-12T02:02:17.652Z,101838.84
2019-01-12T02:04:48.060Z,101844.09
2019-01-12T02:07:18.458Z,101834.50
2019-01-12T02:09:48.871Z,101830.20
2019-01-12T02:12:19.300Z,101831.84
2019-01-12T02:14:49.789Z,101827.09
2019-01-12T02:17:20.146Z,101823.56
2019-01-12T02:19:50.903Z,101823.61
2019-01-12T02:22:21.343Z,101819.61
2019-01-12T02:24:51.802Z,101819.50
2019-01-12T02:27:25.362Z,101819.11
2019-01-12T02:29:56.020Z,101823.13
2019-01-12T02:32:26.460Z,101817.75
2019-01-12T02:34:56.977Z,101817.80
2019-01-12T02:37:29.816Z,101821.30
2019-01-12T02:40:00.631Z,101817.86
2019-01-12T02:42:32.196Z,101823.15
2019-01-12T02:45:02.658Z,101813.09
2019-01-12T02:47:33.210Z,101809.52
2019-01-12T02:50:04.258Z,101809.53
2019-01-12T02:52:34.779Z,101806.92
2019-01-12T02:55:08.912Z,101797.47
2019-01-12T02:57:38.802Z,101799.67
2019-01-12T03:00:12.966Z,101793.06
2019-01-12T03:02:43.434Z,101789.02
2019-01-12T03:05:14.180Z,101790.27
2019-01-12T03:07:44.602Z,101785.94
2019-01-12T03:10:16.955Z,101785.17
2019-01-12T03:12:47.650Z,101783.95
2019-01-12T03:15:18.832Z,101789.11
2019-01-12T03:17:49.181Z,101784.75
2019-01-12T03:20:19.710Z,101779.53
2019-01-12T03:22:50.131Z,101776.91
2019-01-12T03:25:20.573Z,101772.59
2019-01-12T03:27:50.999Z,101771.64
2019-01-12T03:30:21.439Z,101769.09
2019-01-12T03:32:51.841Z,101761.66
2019-01-12T03:35:23.077Z,101749.88
2019-01-12T03:37:53.454Z,101751.63
2019-01-12T03:40:23.838Z,101750.75
2019-01-12T03:42:54.273Z,101751.17
2019-01-12T03:45:24.684Z,101752.90
2019-01-12T03:47:55.130Z,101752.00
2019-01-12T03:50:25.483Z,101753.79
2019-01-12T03:52:56.114Z,101749.90
2019-01-12T03:55:26.518Z,101739.44
2019-01-12T03:57:56.940Z,101739.91
2019-01-12T04:00:27.349Z,101740.70
2019-01-12T04:02:57.726Z,101738.98
2019-01-12T04:05:28.141Z,101739.03
2019-01-12T04:07:58.490Z,101733.83
2019-01-12T04:10:32.066Z,101736.42
2019-01-12T04:13:02.445Z,101732.56
2019-01-12T04:15:33.825Z,101729.85
2019-01-12T04:18:04.241Z,101730.84
2019-01-12T04:20:34.671Z,101728.23
2019-01-12T04:23:05.055Z,101727.47
2019-01-12T04:25:35.579Z,101730.52
2019-01-12T04:28:05.917Z,101730.46
2019-01-12T04:30:36.349Z,101730.41
2019-01-12T04:33:06.950Z,101731.32
2019-01-12T04:35:37.369Z,101733.39
2019-01-12T04:38:07.801Z,101729.51
2019-01-12T04:40:38.476Z,101724.77
2019-01-12T04:43:08.833Z,101728.17
2019-01-12T04:45:39.465Z,101729.05
2019-01-12T04:48:09.793Z,101727.77
2019-01-12T04:50:42.163Z,101732.11
2019-01-12T04:53:27.639Z,101731.20
2019-01-12T04:55:58.018Z,101726.86
2019-01-12T04:58:28.421Z,101722.63
2019-01-12T05:00:59.101Z,101719.59
2019-01-12T05:03:29.966Z,101725.66
2019-01-12T05:06:07.420Z,101723.03
2019-01-12T05:08:37.857Z,101723.02
2019-01-12T05:11:09.905Z,101723.84
2019-01-12T05:13:41.173Z,101723.05
2019-01-12T05:16:11.865Z,101723.82
2019-01-12T05:18:42.284Z,101724.30
2019-01-12T05:21:12.700Z,101719.95
2019-01-12T05:23:43.321Z,101724.83
2019-01-12T05:26:13.699Z,101724.85
2019-01-12T05:28:44.085Z,101721.70
2019-01-12T05:31:14.512Z,101727.41
2019-01-12T05:33:44.941Z,101726.53
2019-01-12T05:36:16.579Z,101725.23
2019-01-12T05:38:47.112Z,101717.79
2019-01-12T05:41:17.798Z,101715.23
2019-01-12T05:43:55.525Z,101727.07
2019-01-12T05:46:25.898Z,101729.23
2019-01-12T05:48:56.252Z,101727.00
2019-01-12T05:51:26.615Z,101721.72
2019-01-12T05:53:57.012Z,101723.56
2019-01-12T05:56:27.403Z,101716.50
2019-01-12T05:58:57.827Z,101710.53
2019-01-12T06:01:30.232Z,101709.23
2019-01-12T06:04:00.754Z,101712.72
2019-01-12T06:06:31.227Z,101711.41
2019-01-12T06:09:01.620Z,101708.31
2019-01-12T06:11:32.013Z,101707.38
2019-01-12T06:14:02.353Z,101714.48
2019-01-12T06:16:32.732Z,101703.91
2019-01-12T06:19:03.430Z,101698.27
2019-01-12T06:21:34.290Z,101694.34
2019-01-12T06:24:06.521Z,101694.36
2019-01-12T06:26:36.896Z,101689.03
2019-01-12T06:29:07.275Z,101687.70
2019-01-12T06:31:37.782Z,101687.73
2019-01-12T06:34:08.336Z,101685.09
2019-01-12T06:36:38.694Z,101689.86
2019-01-12T06:39:10.146Z,101688.96
2019-01-12T06:41:40.673Z,101688.16
2019-01-12T06:44:11.475Z,101685.13
2019-01-12T06:46:41.859Z,101668.90
2019-01-12T06:49:12.209Z,101669.02
2019-01-12T06:51:42.587Z,101659.81
2019-01-12T06:54:13.061Z,101656.78
2019-01-12T06:56:43.395Z,101655.48
2019-01-12T06:59:14.090Z,101646.71
2019-01-12T07:01:44.536Z,101649.33
2019-01-12T07:04:15.014Z,101645.45
2019-01-12T07:06:45.403Z,101632.38
2019-01-12T07:09:15.828Z,101636.25
2019-01-12T07:11:46.368Z,101629.31
2019-01-12T07:14:16.675Z,101638.47
2019-01-12T07:16:47.092Z,101634.56
2019-01-12T07:19:17.458Z,101633.18
2019-01-12T07:21:47.915Z,101631.49
2019-01-12T07:24:18.356Z,101631.93
2019-01-12T07:26:48.778Z,101638.48
2019-01-12T07:29:19.948Z,101627.54
2019-01-12T07:31:50.397Z,101624.94
2019-01-12T07:34:20.831Z,101627.52
2019-01-12T07:36:51.304Z,101620.88
2019-01-12T07:39:21.711Z,101624.41
2019-01-12T07:41:52.602Z,101611.80
2019-01-12T07:44:25.147Z,101596.48
2019-01-12T07:46:55.646Z,101605.20
2019-01-12T07:49:27.041Z,101605.22
2019-01-12T07:51:57.638Z,101596.08
2019-01-12T07:54:27.934Z,101597.88
2019-01-12T07:56:58.411Z,101584.38
2019-01-12T07:59:28.756Z,101587.00
2019-01-12T08:01:59.206Z,101586.15
2019-01-12T08:04:29.875Z,101574.36
2019-01-12T08:07:00.471Z,101573.90
2019-01-12T08:09:30.903Z,101576.11
2019-01-12T08:12:03.358Z,101578.29
2019-01-12T08:14:34.302Z,101578.80
2019-01-12T08:17:09.870Z,101580.09
2019-01-12T08:19:40.404Z,101572.16
2019-01-12T08:22:10.851Z,101562.86
2019-01-12T08:24:41.374Z,101560.30
2019-01-12T08:27:11.865Z,101553.32
2019-01-12T08:29:43.363Z,101551.58
2019-01-12T08:32:15.180Z,101552.37
2019-01-12T08:34:45.542Z,101546.27
2019-01-12T08:37:17.088Z,101541.84
2019-01-12T08:39:47.542Z,101544.98
2019-01-12T08:42:17.910Z,101536.30
2019-01-12T08:44:48.279Z,101534.98
2019-01-12T08:47:18.908Z,101548.47
2019-01-12T08:49:49.234Z,101551.92
2019-01-12T08:52:19.667Z,101558.03
2019-01-12T08:54:50.043Z,101569.74
2019-01-12T08:57:20.467Z,101578.43
2019-01-12T08:59:50.923Z,101558.42
2019-01-12T09:02:21.470Z,101550.16
2019-01-12T09:04:51.873Z,101540.92
2019-01-12T09:07:24.533Z,101536.11
2019-01-12T09:09:55.209Z,101527.27
2019-01-12T09:12:25.646Z,101517.74
2019-01-12T09:14:56.366Z,101514.25
2019-01-12T09:17:26.837Z,101514.61
2019-01-12T09:19:57.180Z,101500.59
2019-01-12T09:22:27.646Z,101490.00
2019-01-12T09:24:58.203Z,101498.72
2019-01-12T09:27:28.959Z,101497.34
2019-01-12T09:29:59.750Z,101496.41
2019-01-12T09:32:32.413Z,101500.81
2019-01-12T09:35:02.767Z,101498.69
2019-01-12T09:37:33.687Z,101499.80
2019-01-12T09:40:04.305Z,101497.20
2019-01-12T09:42:34.741Z,101498.92
2019-01-12T09:45:06.197Z,101483.52
2019-01-12T09:47:36.685Z,101488.84
2019-01-12T09:50:09.123Z,101472.59
2019-01-12T09:52:39.280Z,101462.97
2019-01-12T09:55:09.833Z,101458.60
2019-01-12T09:57:40.512Z,101459.88
2019-01-12T10:00:19.824Z,101444.21
2019-01-12T10:02:51.124Z,101444.59
2019-01-12T10:05:21.549Z,101445.93
2019-01-12T10:07:52.021Z,101443.30
2019-01-12T10:10:25.924Z,101443.86
2019-01-12T10:12:56.646Z,101426.08
2019-01-12T10:15:27.094Z,101421.11
2019-01-12T10:17:57.981Z,101406.69
2019-01-12T10:20:30.457Z,101412.31
2019-01-12T10:23:01.114Z,101405.72
2019-01-12T10:25:33.257Z,101398.48
2019-01-12T10:28:06.709Z,101393.67
2019-01-12T10:30:37.053Z,101396.45
2019-01-12T10:33:07.509Z,101404.72
2019-01-12T10:35:39.827Z,101390.72
2019-01-12T10:38:13.588Z,101402.52
2019-01-12T10:40:43.986Z,101399.45
2019-01-12T10:43:14.493Z,101386.75
2019-01-12T10:45:44.881Z,101377.11
2019-01-12T10:48:15.326Z,101364.84
2019-01-12T10:50:46.027Z,101364.84
2019-01-12T10:53:16.536Z,101363.13
2019-01-12T10:55:47.130Z,101348.55
2019-01-12T10:58:20.524Z,101351.97
2019-01-12T11:00:50.921Z,101345.05
2019-01-12T11:03:24.062Z,101336.75
2019-01-12T11:05:59.513Z,101340.67
2019-01-12T11:08:33.918Z,101340.21
2019-01-12T11:11:04.383Z,101328.28
2019-01-12T11:13:34.788Z,101334.22
2019-01-12T11:16:06.899Z,101315.97
2019-01-12T11:18:37.421Z,101319.88
2019-01-12T11:21:07.851Z,101308.64
2019-01-12T11:23:38.819Z,101312.91
2019-01-12T11:26:09.559Z,101296.84
2019-01-12T11:28:43.054Z,101309.95
2019-01-12T11:31:19.627Z,101307.84
2019-01-12T11:33:45.587Z,101305.72
2019-01-12T11:36:16.072Z,101301.99
2019-01-12T11:38:48.893Z,101297.82
2019-01-12T11:41:19.332Z,101285.69
2019-01-12T11:43:49.857Z,101272.31
2019-01-12T11:46:20.501Z,101260.05
2019-01-12T11:48:51.026Z,101259.72
2019-01-12T11:51:21.719Z,101254.91
2019-01-12T11:53:53.864Z,101254.88
2019-01-12T11:56:24.611Z,101257.50
2019-01-12T11:58:55.053Z,101235.59
2019-01-12T12:01:26.484Z,101226.79
2019-01-12T12:03:58.933Z,101218.45
2019-01-12T12:06:29.493Z,101206.66
2019-01-12T12:09:02.681Z,101204.45
2019-01-12T12:11:33.157Z,101197.53
2019-01-12T12:14:03.565Z,101202.77
2019-01-12T12:16:34.236Z,101190.91
2019-01-12T12:19:04.695Z,101183.88
2019-01-12T12:21:37.583Z,101174.67
2019-01-12T12:24:07.970Z,101165.09
2019-01-12T12:26:38.435Z,101163.35
2019-01-12T12:29:08.839Z,101149.77
2019-01-12T12:31:39.193Z,101145.77
2019-01-12T12:34:09.875Z,101136.45
2019-01-12T12:36:40.458Z,101129.89
2019-01-12T12:39:10.846Z,101131.20
2019-01-12T12:41:45.268Z,101124.06
2019-01-12T12:44:17.375Z,101111.47
2019-01-12T12:46:50.691Z,101113.66
2019-01-12T12:49:23.157Z,101103.52
2019-01-12T12:51:53.953Z,101096.42
2019-01-12T12:54:27.463Z,101093.36
2019-01-12T12:56:57.880Z,101093.00
2019-01-12T12:59:29.338Z,101085.53
2019-01-12T13:02:00.492Z,101075.17
2019-01-12T13:04:31.467Z,101075.80
2019-01-12T13:07:02.703Z,101070.60
2019-01-12T13:09:36.265Z,101067.90
2019-01-12T13:12:07.521Z,101062.73
2019-01-12T13:14:39.001Z,101048.75
2019-01-12T13:17:15.680Z,101053.13
2019-01-12T13:19:46.524Z,101052.17
2019-01-12T13:22:18.198Z,101042.95
2019-01-12T13:24:48.795Z,101037.31
2019-01-12T13:27:19.620Z,101028.09
2019-01-12T13:29:50.170Z,101033.06
2019-01-12T13:32:20.734Z,101029.70
2019-01-12T13:34:53.706Z,101017.34
2019-01-12T13:37:24.240Z,101020.83
2019-01-12T13:39:54.920Z,101013.88
2019-01-12T13:42:26.818Z,101008.28
2019-01-12T13:44:57.593Z,101018.77
2019-01-12T13:47:29.440Z,101005.78
2019-01-12T13:49:59.840Z,101009.95
2019-01-12T13:52:30.609Z,101009.99
2019-01-12T13:55:01.210Z,100997.76
2019-01-12T13:57:34.489Z,101002.56
2019-01-12T14:00:07.043Z,100995.49
2019-01-12T14:02:38.418Z,100992.08
2019-01-12T14:05:09.207Z,100991.95
2019-01-12T14:07:39.652Z,100984.00
2019-01-12T14:10:11.550Z,100977.77
2019-01-12T14:12:42.074Z,100972.08
2019-01-12T14:15:13.569Z,100980.38
2019-01-12T14:17:44.092Z,100978.91
2019-01-12T14:20:17.950Z,100985.93
2019-01-12T14:22:48.339Z,100984.66
2019-01-12T14:25:21.511Z,100979.45
2019-01-12T14:27:54.828Z,100969.81
2019-01-12T14:30:27.576Z,100965.48
2019-01-12T14:32:58.049Z,100954.51
2019-01-12T14:35:28.680Z,100954.47
2019-01-12T14:37:59.815Z,100953.02
2019-01-12T14:40:30.630Z,100953.42
2019-01-12T14:43:01.085Z,100955.64
2019-01-12T14:45:33.031Z,100944.28
2019-01-12T14:48:03.428Z,100940.97
2019-01-12T14:50:34.032Z,100940.78
2019-01-12T14:53:05.245Z,100946.03
2019-01-12T14:55:38.218Z,100931.95
2019-01-12T14:58:11.812Z,100939.42
2019-01-12T15:00:43.115Z,100941.44
2019-01-12T15:03:13.793Z,100942.48
2019-01-12T15:05:44.271Z,100932.48
2019-01-12T15:08:14.674Z,100938.22
2019-01-12T15:10:45.277Z,100944.16
2019-01-12T15:13:15.911Z,100941.58
2019-01-12T15:15:46.390Z,100942.75
2019-01-12T15:18:16.817Z,100934.36
2019-01-12T15:20:47.656Z,100933.39
2019-01-12T15:23:20.964Z,100935.13
2019-01-12T15:25:55.806Z,100926.84
2019-01-12T15:28:26.302Z,100940.87
2019-01-12T15:30:56.847Z,100938.29
2019-01-12T15:33:28.346Z,100931.87
2019-01-12T15:35:59.336Z,100935.41
2019-01-12T15:38:30.830Z,100926.84
2019-01-12T15:41:01.224Z,100927.36
2019-01-12T15:43:31.658Z,100921.28
2019-01-12T15:46:03.021Z,100922.20
2019-01-12T15:48:33.407Z,100918.91
2019-01-12T15:51:05.786Z,100921.97
2019-01-12T15:53:36.275Z,100914.06
2019-01-12T15:56:06.597Z,100919.17
2019-01-12T15:58:37.049Z,100905.96
2019-01-12T16:01:08.889Z,100914.23
2019-01-12T16:03:39.391Z,100902.94
2019-01-12T16:06:09.806Z,100899.01
2019-01-12T16:08:40.264Z,100890.71
2019-01-12T16:11:10.867Z,100882.70
2019-01-12T16:13:41.498Z,100897.95
2019-01-12T16:16:11.912Z,100889.10
2019-01-12T16:18:43.464Z,100888.77
2019-01-12T16:21:13.870Z,100884.64
2019-01-12T16:23:45.087Z,100877.59
2019-01-12T16:26:15.612Z,100875.46
2019-01-12T16:28:46.186Z,100882.50
2019-01-12T16:31:16.446Z,100885.91
2019-01-12T16:33:47.369Z,100873.95
2019-01-12T16:36:19.677Z,100872.64
2019-01-12T16:38:54.456Z,100865.20
2019-01-12T16:41:27.051Z,100865.25
2019-01-12T16:43:57.509Z,100874.10
2019-01-12T16:46:28.016Z,100878.62
2019-01-12T16:48:58.489Z,100870.80
2019-01-12T16:51:28.892Z,100868.07
2019-01-12T16:53:59.370Z,100869.38
2019-01-12T16:56:29.786Z,100870.16
2019-01-12T16:59:00.307Z,100867.48
2019-01-12T17:01:32.395Z,100872.44
2019-01-12T17:04:02.893Z,100871.91
2019-01-12T17:06:33.675Z,100866.36
2019-01-12T17:09:05.867Z,100859.31
2019-01-12T17:11:36.311Z,100847.84
2019-01-12T17:14:06.855Z,100852.23
2019-01-12T17:16:37.319Z,100840.47
2019-01-12T17:19:08.054Z,100846.48
2019-01-12T17:21:38.499Z,100844.93
2019-01-12T17:24:09.334Z,100845.12
2019-01-12T17:26:42.955Z,100838.27
2019-01-12T17:29:17.737Z,100829.03
2019-01-12T17:31:45.576Z,100829.97
2019-01-12T17:34:19.350Z,100827.05
2019-01-12T17:36:49.998Z,100832.45
2019-01-12T17:39:20.410Z,100829.60
2019-01-12T17:41:53.906Z,100831.95
2019-01-12T17:44:24.641Z,100832.77
2019-01-12T17:46:56.855Z,100824.38
2019-01-12T17:49:27.921Z,100822.77
2019-01-12T17:51:59.004Z,100825.95
2019-01-12T17:54:29.558Z,100822.12
2019-01-12T17:57:00.767Z,100826.50
2019-01-12T17:59:31.448Z,100827.98
2019-01-12T18:02:03.498Z,100831.97
2019-01-12T18:04:38.023Z,100834.78
2019-01-12T18:07:09.956Z,100834.45
2019-01-12T18:09:40.923Z,100836.25
2019-01-12T18:12:11.778Z,100839.27
2019-01-12T18:14:42.263Z,100835.28
2019-01-12T18:17:14.362Z,100835.66
2019-01-12T18:19:44.861Z,100833.08
2019-01-12T18:22:19.009Z,100844.28
2019-01-12T18:24:52.380Z,100838.53
2019-01-12T18:27:24.443Z,100838.59
2019-01-12T18:29:57.278Z,100848.66
2019-01-12T18:32:30.815Z,100850.62
2019-01-12T18:35:01.729Z,100849.29
2019-01-12T18:37:35.739Z,100840.34
2019-01-12T18:40:17.982Z,100838.64
2019-01-12T18:42:48.722Z,100832.30
2019-01-12T18:45:20.491Z,100829.33
2019-01-12T18:47:55.032Z,100833.22
2019-01-12T18:50:27.306Z,100846.44
2019-01-12T18:53:05.906Z,100826.52
2019-01-12T18:55:36.970Z,100835.55
2019-01-12T18:58:09.187Z,100828.98
2019-01-12T19:00:39.923Z,100835.45
2019-01-12T19:03:13.480Z,100834.73
2019-01-12T19:05:48.507Z,100843.52
2019-01-12T19:08:26.799Z,100843.22
2019-01-12T19:11:03.167Z,100836.76
2019-01-12T19:13:34.137Z,100843.32
2019-01-12T19:16:05.844Z,100845.52
2019-01-12T19:18:42.744Z,100850.08
2019-01-12T19:21:13.141Z,100851.84
2019-01-12T19:23:44.568Z,100845.81
2019-01-12T19:26:16.204Z,100848.77
2019-01-12T19:28:47.093Z,100842.01
2019-01-12T19:31:19.047Z,100840.47
2019-01-12T19:33:49.665Z,100837.89
2019-01-12T19:36:21.124Z,100834.34
2019-01-12T19:38:52.806Z,100831.81
2019-01-12T19:41:23.509Z,100830.17
2019-01-12T19:43:56.667Z,100818.85
2019-01-12T19:46:30.142Z,100822.52
2019-01-12T19:49:02.738Z,100819.42
2019-01-12T19:51:34.102Z,100818.98
2019-01-12T19:54:07.246Z,100813.50
2019-01-12T19:56:38.946Z,100825.94
2019-01-12T19:59:13.637Z,100817.27
2019-01-12T20:01:41.493Z,100816.25
2019-01-12T20:04:12.717Z,100814.50
2019-01-12T20:06:43.121Z,100812.42
2019-01-12T20:09:13.914Z,100810.61
2019-01-12T20:11:44.663Z,100804.55
2019-01-12T20:14:15.081Z,100807.56
2019-01-12T20:16:45.468Z,100810.85
2019-01-12T20:19:16.256Z,100804.30
2019-01-12T20:21:49.262Z,100807.78
2019-01-12T20:24:19.630Z,100805.55
2019-01-12T20:26:54.080Z,100810.45
2019-01-12T20:29:24.477Z,100807.09
2019-01-12T20:32:32.444Z,100803.25
2019-01-12T20:35:35.531Z,100808.34
2019-01-12T20:38:42.980Z,100808.30
2019-01-12T20:41:58.450Z,100805.34
2019-01-12T20:44:59.468Z,100805.72
2019-01-12T20:48:09.064Z,100802.38
2019-01-12T20:51:39.439Z,100801.02
2019-01-12T20:54:40.903Z,100797.47
2019-01-12T20:57:40.535Z,100798.48
2019-01-12T21:01:10.053Z,100796.48
2019-01-12T21:04:12.825Z,100803.09
2019-01-12T21:07:09.529Z,100803.73
2019-01-12T21:10:26.534Z,100799.05
2019-01-12T21:13:52.741Z,100800.11
2019-01-12T21:16:32.754Z,100798.95
2019-01-12T21:19:06.282Z,100794.25
2019-01-12T21:21:39.545Z,100783.41
2019-01-12T21:24:10.876Z,100788.77
2019-01-12T21:26:41.301Z,100786.63
2019-01-12T21:29:14.441Z,100790.83
2019-01-12T21:31:48.298Z,100790.72
2019-01-12T21:34:19.231Z,100783.34
2019-01-12T21:36:50.736Z,100786.89
2019-01-12T21:39:21.162Z,100779.85
2019-01-12T21:41:52.025Z,100776.34
2019-01-12T21:44:22.429Z,100785.77
2019-01-12T21:46:52.856Z,100781.31
2019-01-12T21:49:26.355Z,100777.18
2019-01-12T21:51:57.054Z,100785.97
2019-01-12T21:54:27.375Z,100783.25
2019-01-12T21:57:00.553Z,100774.98
2019-01-12T21:59:32.392Z,100775.47
2019-01-12T22:02:04.508Z,100775.52
2019-01-12T22:04:35.053Z,100782.53
2019-01-12T22:07:06.124Z,100780.41
2019-01-12T22:09:36.732Z,100783.25
2019-01-12T22:12:08.247Z,100776.69
2019-01-12T22:14:41.454Z,100778.21
2019-01-12T22:17:13.001Z,100776.23
2019-01-12T22:19:43.370Z,100775.64
2019-01-12T22:22:16.861Z,100774.38
2019-01-12T22:24:47.475Z,100779.52
2019-01-12T22:27:17.875Z,100774.06
2019-01-12T22:29:49.921Z,100776.80
2019-01-12T22:32:22.321Z,100779.97
2019-01-12T22:34:55.843Z,100777.45
2019-01-12T22:37:27.212Z,100779.66
2019-01-12T22:39:57.803Z,100786.06
2019-01-12T22:42:28.308Z,100778.82
2019-01-12T22:44:58.851Z,100788.93
2019-01-12T22:47:29.435Z,100785.65
2019-01-12T22:50:03.051Z,100781.77
2019-01-12T22:52:37.551Z,100769.58
2019-01-12T22:55:09.288Z,100773.07
2019-01-12T22:57:39.664Z,100774.72
2019-01-12T23:00:44.243Z,100774.33
2019-01-12T23:03:14.692Z,100773.67
2019-01-12T23:05:45.099Z,100777.06
2019-01-12T23:08:18.688Z,100769.30
2019-01-12T23:10:51.682Z,100766.50
2019-01-12T23:13:22.730Z,100771.70
2019-01-12T23:15:53.152Z,100776.03
2019-01-12T23:18:23.527Z,100779.42
2019-01-12T23:20:53.935Z,100777.61
2019-01-12T23:23:24.282Z,100766.34
2019-01-12T23:25:57.023Z,100760.53
2019-01-12T23:28:27.354Z,100760.00
2019-01-12T23:30:57.735Z,100756.38
2019-01-12T23:33:28.222Z,100749.31
2019-01-12T23:36:03.710Z,100749.81
2019-01-12T23:38:34.055Z,100747.69
2019-01-12T23:41:05.435Z,100748.66
2019-01-12T23:43:36.643Z,100746.92
2019-01-12T23:46:07.077Z,100740.84
2019-01-12T23:48:39.040Z,100755.78
2019-01-12T23:51:09.370Z,100752.29
2019-01-12T23:53:40.093Z,100748.94
2019-01-12T23:56:10.535Z,100754.30
2019-01-12T23:58:40.905Z,100744.25
